sensor_id;sensor_type;location;lat;lon;timestamp;temperature;humidity
21565;DHT22;10943;48.738;9.320;2022-09-17T00:01:29;15.20;99.90
21565;DHT22;10943;48.738;9.320;2022-09-17T00:03:59;15.20;99.90
21565;DHT22;10943;48.738;9.320;2022-09-17T00:06:33;15.20;99.90
21565;DHT22;10943;48.738;9.320;2022-09-17T00:09:04;15.20;99.90
21565;DHT22;10943;48.738;9.320;2022-09-17T00:11:37;15.20;99.90
21565;DHT22;10943;48.738;9.320;2022-09-17T00:14:13;15.20;99.90
21565;DHT22;10943;48.738;9.320;2022-09-17T00:16:45;15.20;99.90
21565;DHT22;10943;48.738;9.320;2022-09-17T00:19:18;15.20;99.90
21565;DHT22;10943;48.738;9.320;2022-09-17T00:21:48;15.00;99.90
21565;DHT22;10943;48.738;9.320;2022-09-17T00:24:18;15.10;99.90
21565;DHT22;10943;48.738;9.320;2022-09-17T00:26:47;15.20;99.90
21565;DHT22;10943;48.738;9.320;2022-09-17T00:29:16;15.30;99.90
21565;DHT22;10943;48.738;9.320;2022-09-17T00:31:43;15.20;99.90
21565;DHT22;10943;48.738;9.320;2022-09-17T00:34:11;15.10;99.90
21565;DHT22;10943;48.738;9.320;2022-09-17T00:36:39;15.20;99.90
21565;DHT22;10943;48.738;9.320;2022-09-17T00:39:09;15.10;99.90
21565;DHT22;10943;48.738;9.320;2022-09-17T00:41:38;15.10;99.90
21565;DHT22;10943;48.738;9.320;2022-09-17T00:50:03;15.10;99.90
21565;DHT22;10943;48.738;9.320;2022-09-17T00:52:49;15.10;99.90
21565;DHT22;10943;48.738;9.320;2022-09-17T00:55:26;15.00;99.90
21565;DHT22;10943;48.738;9.320;2022-09-17T00:58:00;15.10;99.90
21565;DHT22;10943;48.738;9.320;2022-09-17T01:00:30;15.20;99.90
21565;DHT22;10943;48.738;9.320;2022-09-17T01:02:59;15.20;99.90
21565;DHT22;10943;48.738;9.320;2022-09-17T01:05:36;15.20;99.90
21565;DHT22;10943;48.738;9.320;2022-09-17T01:25:23;14.90;99.90
21565;DHT22;10943;48.738;9.320;2022-09-17T01:39:52;14.70;99.90
21565;DHT22;10943;48.738;9.320;2022-09-17T01:42:57;14.50;99.90
21565;DHT22;10943;48.738;9.320;2022-09-17T01:45:48;14.50;99.90
21565;DHT22;10943;48.738;9.320;2022-09-17T01:48:45;14.30;99.90
21565;DHT22;10943;48.738;9.320;2022-09-17T01:51:21;14.20;99.90
21565;DHT22;10943;48.738;9.320;2022-09-17T01:53:58;14.20;99.90
21565;DHT22;10943;48.738;9.320;2022-09-17T01:56:36;14.00;99.90
21565;DHT22;10943;48.738;9.320;2022-09-17T02:01:53;14.00;99.90
21565;DHT22;10943;48.738;9.320;2022-09-17T02:04:36;14.10;99.90
21565;DHT22;10943;48.738;9.320;2022-09-17T02:07:18;14.20;99.90
21565;DHT22;10943;48.738;9.320;2022-09-17T02:09:53;14.30;99.90
21565;DHT22;10943;48.738;9.320;2022-09-17T02:12:34;14.40;99.90
21565;DHT22;10943;48.738;9.320;2022-09-17T02:15:20;14.40;99.90
21565;DHT22;10943;48.738;9.320;2022-09-17T02:17:59;14.60;99.90
21565;DHT22;10943;48.738;9.320;2022-09-17T02:20:46;14.70;99.90
21565;DHT22;10943;48.738;9.320;2022-09-17T02:23:26;14.80;99.90
21565;DHT22;10943;48.738;9.320;2022-09-17T02:26:08;14.90;99.90
21565;DHT22;10943;48.738;9.320;2022-09-17T02:31:18;14.90;99.90
21565;DHT22;10943;48.738;9.320;2022-09-17T02:33:50;14.80;99.90
21565;DHT22;10943;48.738;9.320;2022-09-17T02:36:23;14.60;99.90
21565;DHT22;10943;48.738;9.320;2022-09-17T02:38:58;14.40;99.90
21565;DHT22;10943;48.738;9.320;2022-09-17T02:42:11;14.40;99.90
21565;DHT22;10943;48.738;9.320;2022-09-17T02:59:28;14.40;99.90
21565;DHT22;10943;48.738;9.320;2022-09-17T03:02:17;14.50;99.90
21565;DHT22;10943;48.738;9.320;2022-09-17T03:04:50;14.60;99.90
21565;DHT22;10943;48.738;9.320;2022-09-17T03:07:22;14.60;99.90
21565;DHT22;10943;48.738;9.320;2022-09-17T03:09:50;14.70;99.90
21565;DHT22;10943;48.738;9.320;2022-09-17T03:12:17;14.80;99.90
21565;DHT22;10943;48.738;9.320;2022-09-17T03:14:45;14.80;99.90
21565;DHT22;10943;48.738;9.320;2022-09-17T03:17:12;14.80;99.90
21565;DHT22;10943;48.738;9.320;2022-09-17T03:19:40;14.70;99.90
21565;DHT22;10943;48.738;9.320;2022-09-17T03:22:07;14.70;99.90
21565;DHT22;10943;48.738;9.320;2022-09-17T03:24:35;14.40;99.90
21565;DHT22;10943;48.738;9.320;2022-09-17T03:27:03;14.30;99.90
21565;DHT22;10943;48.738;9.320;2022-09-17T03:29:31;14.30;99.90
21565;DHT22;10943;48.738;9.320;2022-09-17T03:31:58;14.20;99.90
21565;DHT22;10943;48.738;9.320;2022-09-17T03:34:26;14.30;99.90
21565;DHT22;10943;48.738;9.320;2022-09-17T03:36:54;14.30;99.90
21565;DHT22;10943;48.738;9.320;2022-09-17T03:39:21;14.30;99.90
21565;DHT22;10943;48.738;9.320;2022-09-17T03:41:48;14.30;99.90
21565;DHT22;10943;48.738;9.320;2022-09-17T03:44:16;14.30;99.90
21565;DHT22;10943;48.738;9.320;2022-09-17T03:46:45;14.10;99.90
21565;DHT22;10943;48.738;9.320;2022-09-17T03:49:12;14.10;99.90
21565;DHT22;10943;48.738;9.320;2022-09-17T03:51:40;14.20;99.90
21565;DHT22;10943;48.738;9.320;2022-09-17T03:54:07;14.30;99.90
21565;DHT22;10943;48.738;9.320;2022-09-17T03:56:35;14.20;99.90
21565;DHT22;10943;48.738;9.320;2022-09-17T03:59:02;14.30;99.90
21565;DHT22;10943;48.738;9.320;2022-09-17T04:01:30;14.20;99.90
21565;DHT22;10943;48.738;9.320;2022-09-17T04:03:57;14.20;99.90
21565;DHT22;10943;48.738;9.320;2022-09-17T04:06:24;14.30;99.90
21565;DHT22;10943;48.738;9.320;2022-09-17T04:08:52;14.30;99.90
21565;DHT22;10943;48.738;9.320;2022-09-17T04:11:19;14.40;99.90
21565;DHT22;10943;48.738;9.320;2022-09-17T04:13:46;14.40;99.90
21565;DHT22;10943;48.738;9.320;2022-09-17T04:16:14;14.30;99.90
21565;DHT22;10943;48.738;9.320;2022-09-17T04:18:41;14.10;99.90
21565;DHT22;10943;48.738;9.320;2022-09-17T04:21:09;13.90;99.90
21565;DHT22;10943;48.738;9.320;2022-09-17T04:23:36;13.90;99.90
21565;DHT22;10943;48.738;9.320;2022-09-17T04:26:04;14.00;99.90
21565;DHT22;10943;48.738;9.320;2022-09-17T04:28:31;14.00;99.90
21565;DHT22;10943;48.738;9.320;2022-09-17T04:30:59;14.10;99.90
21565;DHT22;10943;48.738;9.320;2022-09-17T04:33:26;14.10;99.90
21565;DHT22;10943;48.738;9.320;2022-09-17T04:35:53;14.20;99.90
21565;DHT22;10943;48.738;9.320;2022-09-17T04:38:21;14.30;99.90
21565;DHT22;10943;48.738;9.320;2022-09-17T04:40:48;14.20;99.90
21565;DHT22;10943;48.738;9.320;2022-09-17T04:43:17;14.10;99.90
21565;DHT22;10943;48.738;9.320;2022-09-17T04:45:46;14.10;99.90
21565;DHT22;10943;48.738;9.320;2022-09-17T04:48:40;14.10;99.90
21565;DHT22;10943;48.738;9.320;2022-09-17T04:51:07;14.30;99.90
21565;DHT22;10943;48.738;9.320;2022-09-17T04:53:35;14.50;99.90
21565;DHT22;10943;48.738;9.320;2022-09-17T04:56:04;14.50;99.90
21565;DHT22;10943;48.738;9.320;2022-09-17T04:58:31;14.60;99.90
21565;DHT22;10943;48.738;9.320;2022-09-17T05:00:59;14.60;99.90
21565;DHT22;10943;48.738;9.320;2022-09-17T05:03:26;14.60;99.90
21565;DHT22;10943;48.738;9.320;2022-09-17T05:05:53;14.70;99.90
21565;DHT22;10943;48.738;9.320;2022-09-17T05:08:21;14.70;99.90
21565;DHT22;10943;48.738;9.320;2022-09-17T05:10:50;14.80;99.90
21565;DHT22;10943;48.738;9.320;2022-09-17T05:13:18;14.90;99.90
21565;DHT22;10943;48.738;9.320;2022-09-17T05:15:45;15.00;99.90
21565;DHT22;10943;48.738;9.320;2022-09-17T05:18:13;14.70;99.90
21565;DHT22;10943;48.738;9.320;2022-09-17T05:20:41;14.70;99.90
21565;DHT22;10943;48.738;9.320;2022-09-17T05:23:09;14.70;99.90
21565;DHT22;10943;48.738;9.320;2022-09-17T05:25:36;14.80;99.90
21565;DHT22;10943;48.738;9.320;2022-09-17T05:28:04;14.80;99.90
21565;DHT22;10943;48.738;9.320;2022-09-17T05:30:32;14.80;99.90
21565;DHT22;10943;48.738;9.320;2022-09-17T05:33:04;15.00;99.90
21565;DHT22;10943;48.738;9.320;2022-09-17T05:35:33;14.90;99.90
21565;DHT22;10943;48.738;9.320;2022-09-17T05:38:04;15.00;99.90
21565;DHT22;10943;48.738;9.320;2022-09-17T05:40:34;15.00;99.90
21565;DHT22;10943;48.738;9.320;2022-09-17T05:43:04;15.00;99.90
21565;DHT22;10943;48.738;9.320;2022-09-17T05:45:34;15.10;99.90
21565;DHT22;10943;48.738;9.320;2022-09-17T05:48:10;15.20;99.90
21565;DHT22;10943;48.738;9.320;2022-09-17T05:50:39;15.30;99.90
21565;DHT22;10943;48.738;9.320;2022-09-17T05:53:12;15.10;99.90
21565;DHT22;10943;48.738;9.320;2022-09-17T05:55:40;15.10;99.90
21565;DHT22;10943;48.738;9.320;2022-09-17T05:58:09;15.00;99.90
21565;DHT22;10943;48.738;9.320;2022-09-17T06:00:39;15.00;99.90
21565;DHT22;10943;48.738;9.320;2022-09-17T06:03:09;15.20;99.90
21565;DHT22;10943;48.738;9.320;2022-09-17T06:05:39;15.20;99.90
21565;DHT22;10943;48.738;9.320;2022-09-17T06:08:07;15.00;99.90
21565;DHT22;10943;48.738;9.320;2022-09-17T06:10:36;15.40;99.90
21565;DHT22;10943;48.738;9.320;2022-09-17T06:13:04;15.70;99.90
21565;DHT22;10943;48.738;9.320;2022-09-17T06:15:33;15.90;99.90
21565;DHT22;10943;48.738;9.320;2022-09-17T06:18:01;16.20;99.90
21565;DHT22;10943;48.738;9.320;2022-09-17T06:20:28;16.40;99.90
21565;DHT22;10943;48.738;9.320;2022-09-17T06:22:56;16.40;99.90
21565;DHT22;10943;48.738;9.320;2022-09-17T06:25:25;16.70;99.90
21565;DHT22;10943;48.738;9.320;2022-09-17T06:27:52;16.90;99.90
21565;DHT22;10943;48.738;9.320;2022-09-17T06:30:19;16.90;99.90
21565;DHT22;10943;48.738;9.320;2022-09-17T06:32:47;17.00;99.90
21565;DHT22;10943;48.738;9.320;2022-09-17T06:35:14;16.90;99.90
21565;DHT22;10943;48.738;9.320;2022-09-17T06:37:41;17.00;99.90
21565;DHT22;10943;48.738;9.320;2022-09-17T06:40:09;17.00;99.90
21565;DHT22;10943;48.738;9.320;2022-09-17T06:42:37;16.90;99.90
21565;DHT22;10943;48.738;9.320;2022-09-17T06:45:04;16.90;99.90
21565;DHT22;10943;48.738;9.320;2022-09-17T06:47:39;16.90;99.90
21565;DHT22;10943;48.738;9.320;2022-09-17T06:50:06;16.80;99.90
21565;DHT22;10943;48.738;9.320;2022-09-17T06:52:34;16.70;99.90
21565;DHT22;10943;48.738;9.320;2022-09-17T06:55:01;16.70;99.90
21565;DHT22;10943;48.738;9.320;2022-09-17T06:57:28;16.60;99.90
21565;DHT22;10943;48.738;9.320;2022-09-17T06:59:56;16.60;99.90
21565;DHT22;10943;48.738;9.320;2022-09-17T07:02:23;16.50;99.90
21565;DHT22;10943;48.738;9.320;2022-09-17T07:04:51;16.50;99.90
21565;DHT22;10943;48.738;9.320;2022-09-17T07:07:20;16.50;99.90
21565;DHT22;10943;48.738;9.320;2022-09-17T07:09:48;16.40;99.90
21565;DHT22;10943;48.738;9.320;2022-09-17T07:12:15;16.10;99.90
21565;DHT22;10943;48.738;9.320;2022-09-17T07:14:42;16.00;99.90
21565;DHT22;10943;48.738;9.320;2022-09-17T07:17:09;16.20;99.90
21565;DHT22;10943;48.738;9.320;2022-09-17T07:19:37;15.90;99.90
21565;DHT22;10943;48.738;9.320;2022-09-17T07:22:04;15.90;99.90
21565;DHT22;10943;48.738;9.320;2022-09-17T07:24:32;15.80;99.90
21565;DHT22;10943;48.738;9.320;2022-09-17T07:27:00;15.60;99.90
21565;DHT22;10943;48.738;9.320;2022-09-17T07:29:28;15.50;99.90
21565;DHT22;10943;48.738;9.320;2022-09-17T07:31:56;15.40;99.90
21565;DHT22;10943;48.738;9.320;2022-09-17T07:34:25;15.70;99.90
21565;DHT22;10943;48.738;9.320;2022-09-17T07:36:54;15.60;99.90
21565;DHT22;10943;48.738;9.320;2022-09-17T07:39:22;15.40;99.90
21565;DHT22;10943;48.738;9.320;2022-09-17T07:41:49;15.20;99.90
21565;DHT22;10943;48.738;9.320;2022-09-17T07:44:16;14.90;99.90
21565;DHT22;10943;48.738;9.320;2022-09-17T07:46:44;15.10;99.90
21565;DHT22;10943;48.738;9.320;2022-09-17T07:49:11;15.10;99.90
21565;DHT22;10943;48.738;9.320;2022-09-17T07:51:39;15.00;99.90
21565;DHT22;10943;48.738;9.320;2022-09-17T07:54:06;15.00;99.90
21565;DHT22;10943;48.738;9.320;2022-09-17T07:56:34;15.10;99.90
21565;DHT22;10943;48.738;9.320;2022-09-17T07:59:02;15.30;99.90
21565;DHT22;10943;48.738;9.320;2022-09-17T08:01:32;15.50;99.90
21565;DHT22;10943;48.738;9.320;2022-09-17T08:04:00;15.70;99.90
21565;DHT22;10943;48.738;9.320;2022-09-17T08:06:29;15.60;99.90
21565;DHT22;10943;48.738;9.320;2022-09-17T08:08:58;15.60;99.90
21565;DHT22;10943;48.738;9.320;2022-09-17T08:11:28;15.70;99.90
21565;DHT22;10943;48.738;9.320;2022-09-17T08:14:19;15.60;99.90
21565;DHT22;10943;48.738;9.320;2022-09-17T08:16:52;15.30;99.90
21565;DHT22;10943;48.738;9.320;2022-09-17T08:19:20;15.20;99.90
21565;DHT22;10943;48.738;9.320;2022-09-17T08:21:48;15.10;99.90
21565;DHT22;10943;48.738;9.320;2022-09-17T08:24:15;15.20;99.90
21565;DHT22;10943;48.738;9.320;2022-09-17T08:26:42;15.30;99.90
21565;DHT22;10943;48.738;9.320;2022-09-17T08:29:10;15.50;99.90
21565;DHT22;10943;48.738;9.320;2022-09-17T08:31:37;15.40;99.90
21565;DHT22;10943;48.738;9.320;2022-09-17T08:34:08;15.70;99.90
21565;DHT22;10943;48.738;9.320;2022-09-17T08:36:36;15.70;99.90
21565;DHT22;10943;48.738;9.320;2022-09-17T08:39:04;15.90;99.90
21565;DHT22;10943;48.738;9.320;2022-09-17T08:45:10;15.60;99.90
21565;DHT22;10943;48.738;9.320;2022-09-17T08:47:42;15.80;99.90
21565;DHT22;10943;48.738;9.320;2022-09-17T08:50:16;16.10;99.90
21565;DHT22;10943;48.738;9.320;2022-09-17T08:56:14;16.00;99.90
21565;DHT22;10943;48.738;9.320;2022-09-17T08:59:08;16.20;99.90
21565;DHT22;10943;48.738;9.320;2022-09-17T09:07:11;16.50;99.90
21565;DHT22;10943;48.738;9.320;2022-09-17T09:09:52;19.30;99.90
21565;DHT22;10943;48.738;9.320;2022-09-17T09:12:43;19.80;99.90
21565;DHT22;10943;48.738;9.320;2022-09-17T09:18:22;22.20;99.90
21565;DHT22;10943;48.738;9.320;2022-09-17T09:34:20;23.20;99.90
21565;DHT22;10943;48.738;9.320;2022-09-17T09:36:48;22.30;99.90
21565;DHT22;10943;48.738;9.320;2022-09-17T09:39:23;21.10;99.90
21565;DHT22;10943;48.738;9.320;2022-09-17T09:42:03;20.60;99.90
21565;DHT22;10943;48.738;9.320;2022-09-17T09:44:50;20.30;99.90
21565;DHT22;10943;48.738;9.320;2022-09-17T09:47:46;20.40;99.90
21565;DHT22;10943;48.738;9.320;2022-09-17T09:50:49;20.40;99.90
21565;DHT22;10943;48.738;9.320;2022-09-17T09:59:25;20.30;99.90
21565;DHT22;10943;48.738;9.320;2022-09-17T10:01:52;20.70;99.90
21565;DHT22;10943;48.738;9.320;2022-09-17T10:04:23;20.70;99.90
21565;DHT22;10943;48.738;9.320;2022-09-17T10:06:59;20.30;99.90
21565;DHT22;10943;48.738;9.320;2022-09-17T10:09:35;20.10;99.90
21565;DHT22;10943;48.738;9.320;2022-09-17T10:12:15;20.10;99.90
21565;DHT22;10943;48.738;9.320;2022-09-17T10:14:45;20.10;99.90
21565;DHT22;10943;48.738;9.320;2022-09-17T10:17:22;20.10;99.90
21565;DHT22;10943;48.738;9.320;2022-09-17T10:20:13;20.20;99.90
21565;DHT22;10943;48.738;9.320;2022-09-17T10:22:49;20.10;99.90
21565;DHT22;10943;48.738;9.320;2022-09-17T10:27:57;19.60;99.90
21565;DHT22;10943;48.738;9.320;2022-09-17T10:31:02;20.10;99.90
21565;DHT22;10943;48.738;9.320;2022-09-17T10:36:45;20.60;99.90
21565;DHT22;10943;48.738;9.320;2022-09-17T10:42:17;20.60;99.90
21565;DHT22;10943;48.738;9.320;2022-09-17T10:44:58;23.20;99.90
21565;DHT22;10943;48.738;9.320;2022-09-17T10:47:41;25.30;99.90
21565;DHT22;10943;48.738;9.320;2022-09-17T10:50:31;26.30;99.90
21565;DHT22;10943;48.738;9.320;2022-09-17T10:53:15;26.80;99.90
21565;DHT22;10943;48.738;9.320;2022-09-17T10:59:01;26.10;99.90
21565;DHT22;10943;48.738;9.320;2022-09-17T11:05:29;27.30;97.90
21565;DHT22;10943;48.738;9.320;2022-09-17T11:34:20;28.90;82.70
21565;DHT22;10943;48.738;9.320;2022-09-17T11:37:18;28.10;85.40
21565;DHT22;10943;48.738;9.320;2022-09-17T11:40:14;27.20;85.10
21565;DHT22;10943;48.738;9.320;2022-09-17T11:42:58;26.30;86.70
21565;DHT22;10943;48.738;9.320;2022-09-17T11:45:38;25.90;88.30
21565;DHT22;10943;48.738;9.320;2022-09-17T11:48:45;25.20;89.20
21565;DHT22;10943;48.738;9.320;2022-09-17T11:51:49;24.30;90.90
21565;DHT22;10943;48.738;9.320;2022-09-17T11:57:24;23.90;91.50
21565;DHT22;10943;48.738;9.320;2022-09-17T12:03:08;23.20;91.30
21565;DHT22;10943;48.738;9.320;2022-09-17T12:05:53;23.80;91.10
21565;DHT22;10943;48.738;9.320;2022-09-17T12:14:15;23.90;90.60
21565;DHT22;10943;48.738;9.320;2022-09-17T12:16:52;23.10;91.50
21565;DHT22;10943;48.738;9.320;2022-09-17T12:19:39;22.60;92.20
21565;DHT22;10943;48.738;9.320;2022-09-17T12:22:25;22.50;94.40
21565;DHT22;10943;48.738;9.320;2022-09-17T12:24:57;22.30;95.80
21565;DHT22;10943;48.738;9.320;2022-09-17T12:27:49;21.80;94.70
21565;DHT22;10943;48.738;9.320;2022-09-17T12:30:32;21.50;94.60
21565;DHT22;10943;48.738;9.320;2022-09-17T12:33:45;21.10;95.30
21565;DHT22;10943;48.738;9.320;2022-09-17T12:42:44;19.50;99.90
21565;DHT22;10943;48.738;9.320;2022-09-17T12:52:03;18.60;99.90
21565;DHT22;10943;48.738;9.320;2022-09-17T13:00:52;20.10;99.90
21565;DHT22;10943;48.738;9.320;2022-09-17T13:03:40;20.60;99.90
21565;DHT22;10943;48.738;9.320;2022-09-17T13:14:53;19.90;99.90
21565;DHT22;10943;48.738;9.320;2022-09-17T13:18:00;19.70;99.90
21565;DHT22;10943;48.738;9.320;2022-09-17T13:23:43;19.10;99.90
21565;DHT22;10943;48.738;9.320;2022-09-17T13:26:18;18.60;99.90
21565;DHT22;10943;48.738;9.320;2022-09-17T13:28:49;18.20;99.90
21565;DHT22;10943;48.738;9.320;2022-09-17T13:31:20;17.70;99.90
21565;DHT22;10943;48.738;9.320;2022-09-17T13:34:30;17.60;99.90
21565;DHT22;10943;48.738;9.320;2022-09-17T13:37:03;17.80;99.90
21565;DHT22;10943;48.738;9.320;2022-09-17T13:39:47;18.00;99.90
21565;DHT22;10943;48.738;9.320;2022-09-17T13:42:45;18.50;99.90
21565;DHT22;10943;48.738;9.320;2022-09-17T13:45:17;19.00;99.90
21565;DHT22;10943;48.738;9.320;2022-09-17T13:55:50;19.00;99.90
21565;DHT22;10943;48.738;9.320;2022-09-17T13:58:33;19.00;99.90
21565;DHT22;10943;48.738;9.320;2022-09-17T14:01:06;19.60;99.90
21565;DHT22;10943;48.738;9.320;2022-09-17T14:08:59;20.50;99.90
21565;DHT22;10943;48.738;9.320;2022-09-17T14:23:49;20.40;99.90
21565;DHT22;10943;48.738;9.320;2022-09-17T14:29:32;19.80;99.90
21565;DHT22;10943;48.738;9.320;2022-09-17T14:32:20;20.20;99.90
21565;DHT22;10943;48.738;9.320;2022-09-17T14:35:03;20.50;99.90
21565;DHT22;10943;48.738;9.320;2022-09-17T14:37:52;20.50;99.90
21565;DHT22;10943;48.738;9.320;2022-09-17T14:40:27;20.60;99.90
21565;DHT22;10943;48.738;9.320;2022-09-17T14:43:01;20.60;99.90
21565;DHT22;10943;48.738;9.320;2022-09-17T14:45:32;20.70;99.90
21565;DHT22;10943;48.738;9.320;2022-09-17T14:51:25;21.10;99.90
21565;DHT22;10943;48.738;9.320;2022-09-17T14:59:56;21.10;99.90
21565;DHT22;10943;48.738;9.320;2022-09-17T15:02:39;20.20;99.90
21565;DHT22;10943;48.738;9.320;2022-09-17T15:10:53;20.80;99.90
21565;DHT22;10943;48.738;9.320;2022-09-17T15:13:27;20.70;99.90
21565;DHT22;10943;48.738;9.320;2022-09-17T15:16:03;20.50;99.90
21565;DHT22;10943;48.738;9.320;2022-09-17T15:21:49;20.20;99.90
21565;DHT22;10943;48.738;9.320;2022-09-17T15:27:05;20.00;99.90
21565;DHT22;10943;48.738;9.320;2022-09-17T15:32:53;19.70;99.90
21565;DHT22;10943;48.738;9.320;2022-09-17T15:35:58;19.40;99.90
21565;DHT22;10943;48.738;9.320;2022-09-17T15:38:49;19.20;99.90
21565;DHT22;10943;48.738;9.320;2022-09-17T15:44:05;19.00;99.90
21565;DHT22;10943;48.738;9.320;2022-09-17T15:46:53;18.90;99.90
21565;DHT22;10943;48.738;9.320;2022-09-17T15:49:29;18.90;99.90
21565;DHT22;10943;48.738;9.320;2022-09-17T15:52:36;18.90;99.90
21565;DHT22;10943;48.738;9.320;2022-09-17T15:55:25;18.90;99.90
21565;DHT22;10943;48.738;9.320;2022-09-17T15:57:57;19.00;99.90
21565;DHT22;10943;48.738;9.320;2022-09-17T16:00:26;18.90;99.90
21565;DHT22;10943;48.738;9.320;2022-09-17T16:02:54;18.90;99.90
21565;DHT22;10943;48.738;9.320;2022-09-17T16:08:19;19.10;99.90
21565;DHT22;10943;48.738;9.320;2022-09-17T16:10:49;18.80;99.90
21565;DHT22;10943;48.738;9.320;2022-09-17T16:13:20;18.60;99.90
21565;DHT22;10943;48.738;9.320;2022-09-17T16:15:54;18.70;99.90
21565;DHT22;10943;48.738;9.320;2022-09-17T16:18:22;18.80;99.90
21565;DHT22;10943;48.738;9.320;2022-09-17T16:20:49;18.50;99.90
21565;DHT22;10943;48.738;9.320;2022-09-17T16:23:17;18.40;99.90
21565;DHT22;10943;48.738;9.320;2022-09-17T16:25:44;18.30;99.90
21565;DHT22;10943;48.738;9.320;2022-09-17T16:28:15;18.20;99.90
21565;DHT22;10943;48.738;9.320;2022-09-17T16:30:48;18.10;99.90
21565;DHT22;10943;48.738;9.320;2022-09-17T16:33:16;18.00;99.90
21565;DHT22;10943;48.738;9.320;2022-09-17T16:35:45;18.00;99.90
21565;DHT22;10943;48.738;9.320;2022-09-17T16:38:13;18.20;99.90
21565;DHT22;10943;48.738;9.320;2022-09-17T16:40:42;18.50;99.90
21565;DHT22;10943;48.738;9.320;2022-09-17T16:43:15;18.90;99.90
21565;DHT22;10943;48.738;9.320;2022-09-17T16:45:43;18.90;99.90
21565;DHT22;10943;48.738;9.320;2022-09-17T16:48:31;19.00;99.90
21565;DHT22;10943;48.738;9.320;2022-09-17T16:50:59;19.20;99.90
21565;DHT22;10943;48.738;9.320;2022-09-17T16:53:28;19.10;99.90
21565;DHT22;10943;48.738;9.320;2022-09-17T16:55:55;18.80;99.90
21565;DHT22;10943;48.738;9.320;2022-09-17T16:58:22;18.70;99.90
21565;DHT22;10943;48.738;9.320;2022-09-17T17:00:50;18.70;99.90
21565;DHT22;10943;48.738;9.320;2022-09-17T17:03:18;18.50;99.90
21565;DHT22;10943;48.738;9.320;2022-09-17T17:05:46;18.50;99.90
21565;DHT22;10943;48.738;9.320;2022-09-17T17:08:13;18.50;99.90
21565;DHT22;10943;48.738;9.320;2022-09-17T17:10:41;18.40;99.90
21565;DHT22;10943;48.738;9.320;2022-09-17T17:13:34;18.30;99.90
21565;DHT22;10943;48.738;9.320;2022-09-17T17:16:07;18.20;99.90
21565;DHT22;10943;48.738;9.320;2022-09-17T17:18:37;18.00;99.90
21565;DHT22;10943;48.738;9.320;2022-09-17T17:21:06;18.00;99.90
21565;DHT22;10943;48.738;9.320;2022-09-17T17:23:36;18.00;99.90
21565;DHT22;10943;48.738;9.320;2022-09-17T17:26:04;17.90;99.90
21565;DHT22;10943;48.738;9.320;2022-09-17T17:28:33;18.10;99.90
21565;DHT22;10943;48.738;9.320;2022-09-17T17:31:03;18.00;99.90
21565;DHT22;10943;48.738;9.320;2022-09-17T17:33:31;17.80;99.90
21565;DHT22;10943;48.738;9.320;2022-09-17T17:36:01;17.60;99.90
21565;DHT22;10943;48.738;9.320;2022-09-17T17:38:37;17.30;99.90
21565;DHT22;10943;48.738;9.320;2022-09-17T17:41:09;16.90;99.90
21565;DHT22;10943;48.738;9.320;2022-09-17T17:43:41;16.90;99.90
21565;DHT22;10943;48.738;9.320;2022-09-17T17:46:15;16.70;99.90
21565;DHT22;10943;48.738;9.320;2022-09-17T17:48:48;16.70;99.90
21565;DHT22;10943;48.738;9.320;2022-09-17T17:51:19;16.60;99.90
21565;DHT22;10943;48.738;9.320;2022-09-17T17:54:02;16.60;99.90
21565;DHT22;10943;48.738;9.320;2022-09-17T17:56:35;16.40;99.90
21565;DHT22;10943;48.738;9.320;2022-09-17T17:59:22;16.00;99.90
21565;DHT22;10943;48.738;9.320;2022-09-17T18:01:52;15.70;99.90
21565;DHT22;10943;48.738;9.320;2022-09-17T18:04:21;15.60;99.90
21565;DHT22;10943;48.738;9.320;2022-09-17T18:06:49;15.70;99.90
21565;DHT22;10943;48.738;9.320;2022-09-17T18:09:16;15.70;99.90
21565;DHT22;10943;48.738;9.320;2022-09-17T18:11:44;15.70;99.90
21565;DHT22;10943;48.738;9.320;2022-09-17T18:14:12;15.60;99.90
21565;DHT22;10943;48.738;9.320;2022-09-17T18:16:40;15.50;99.90
21565;DHT22;10943;48.738;9.320;2022-09-17T18:19:15;15.60;99.90
21565;DHT22;10943;48.738;9.320;2022-09-17T18:21:43;15.60;99.90
21565;DHT22;10943;48.738;9.320;2022-09-17T18:24:11;15.60;99.90
21565;DHT22;10943;48.738;9.320;2022-09-17T18:26:39;15.50;99.90
21565;DHT22;10943;48.738;9.320;2022-09-17T18:29:07;15.30;99.90
21565;DHT22;10943;48.738;9.320;2022-09-17T18:31:35;15.40;99.90
21565;DHT22;10943;48.738;9.320;2022-09-17T18:34:07;15.40;99.90
21565;DHT22;10943;48.738;9.320;2022-09-17T18:36:41;15.40;99.90
21565;DHT22;10943;48.738;9.320;2022-09-17T18:39:17;15.40;99.90
21565;DHT22;10943;48.738;9.320;2022-09-17T18:42:09;15.30;99.90
21565;DHT22;10943;48.738;9.320;2022-09-17T18:44:36;15.30;99.90
21565;DHT22;10943;48.738;9.320;2022-09-17T18:47:04;15.20;99.90
21565;DHT22;10943;48.738;9.320;2022-09-17T18:49:32;15.20;99.90
21565;DHT22;10943;48.738;9.320;2022-09-17T18:52:00;15.30;99.90
21565;DHT22;10943;48.738;9.320;2022-09-17T18:54:30;15.10;99.90
21565;DHT22;10943;48.738;9.320;2022-09-17T18:57:00;15.10;99.90
21565;DHT22;10943;48.738;9.320;2022-09-17T18:59:31;15.00;99.90
21565;DHT22;10943;48.738;9.320;2022-09-17T19:01:59;15.00;99.90
21565;DHT22;10943;48.738;9.320;2022-09-17T19:04:42;15.00;99.90
21565;DHT22;10943;48.738;9.320;2022-09-17T19:07:19;14.90;99.90
21565;DHT22;10943;48.738;9.320;2022-09-17T19:09:53;14.90;99.90
21565;DHT22;10943;48.738;9.320;2022-09-17T19:12:20;14.90;99.90
21565;DHT22;10943;48.738;9.320;2022-09-17T19:14:48;15.00;99.90
21565;DHT22;10943;48.738;9.320;2022-09-17T19:17:16;15.10;99.90
21565;DHT22;10943;48.738;9.320;2022-09-17T19:19:46;15.20;99.90
21565;DHT22;10943;48.738;9.320;2022-09-17T19:22:13;15.10;99.90
21565;DHT22;10943;48.738;9.320;2022-09-17T19:24:41;14.90;99.90
21565;DHT22;10943;48.738;9.320;2022-09-17T19:27:09;14.80;99.90
21565;DHT22;10943;48.738;9.320;2022-09-17T19:29:36;14.60;99.90
21565;DHT22;10943;48.738;9.320;2022-09-17T19:32:04;14.10;99.90
21565;DHT22;10943;48.738;9.320;2022-09-17T19:34:31;13.50;99.90
21565;DHT22;10943;48.738;9.320;2022-09-17T19:36:59;13.40;99.90
21565;DHT22;10943;48.738;9.320;2022-09-17T19:39:29;13.40;99.90
21565;DHT22;10943;48.738;9.320;2022-09-17T19:41:57;13.50;99.90
21565;DHT22;10943;48.738;9.320;2022-09-17T19:44:24;13.40;99.90
21565;DHT22;10943;48.738;9.320;2022-09-17T19:46:56;13.40;99.90
21565;DHT22;10943;48.738;9.320;2022-09-17T19:49:23;13.20;99.90
21565;DHT22;10943;48.738;9.320;2022-09-17T19:51:57;13.30;99.90
21565;DHT22;10943;48.738;9.320;2022-09-17T19:55:13;13.30;99.90
21565;DHT22;10943;48.738;9.320;2022-09-17T19:57:41;13.40;99.90
21565;DHT22;10943;48.738;9.320;2022-09-17T20:00:09;13.50;99.90
21565;DHT22;10943;48.738;9.320;2022-09-17T20:02:39;13.40;99.90